Terminal Aerodrome Forecast
Issued by NWS

Home | Current Version | Previous Version | Text Only | Print | Product List | Glossary On
Versions: 1 2 3 4 5 6 7 8 9 10 11 12 13 14 15 16 17 18 19 20 21 22 23 24 25 26 27 28
000
FTUS45 KLKN 082338
TAFEKO
TAF
KEKO 082338Z 0900/0924 VRB05KT P6SM -SN OVC045
     FM090300 21006KT P6SM -SNRA OVC030
      TEMPO 0903/0904 3SM -SN OVC020
     FM091600 22007KT P6SM -RASN OVC025=

USA.gov is the U.S. government's official web portal to all federal, state and local government web resources and services.